createdAt,value
2017-05-22T00:01:15.111Z,14.97
2017-05-22T00:03:41.775Z,15.95
2017-05-22T00:06:08.391Z,18.38
2017-05-22T00:08:35.012Z,16.82
2017-05-22T00:11:01.651Z,17.63
2017-05-22T00:13:28.277Z,17.22
2017-05-22T00:15:54.970Z,15.60
2017-05-22T00:18:21.607Z,14.57
2017-05-22T00:20:48.222Z,15.88
2017-05-22T00:23:14.843Z,14.57
2017-05-22T00:25:41.526Z,14.35
2017-05-22T00:28:08.148Z,17.83
2017-05-22T00:30:34.802Z,14.48
2017-05-22T00:33:01.451Z,16.23
2017-05-22T00:35:28.071Z,14.58
2017-05-22T00:37:54.728Z,15.25
2017-05-22T00:40:21.464Z,14.10
2017-05-22T00:42:48.087Z,14.33
2017-05-22T00:45:14.703Z,13.70
2017-05-22T00:47:41.492Z,14.17
2017-05-22T00:50:08.158Z,12.22
2017-05-22T00:52:34.775Z,13.93
2017-05-22T00:55:01.811Z,12.95
2017-05-22T00:57:28.434Z,13.68
2017-05-22T00:59:55.056Z,13.83
2017-05-22T01:02:21.698Z,17.00
2017-05-22T01:04:48.318Z,14.52
2017-05-22T01:07:14.938Z,16.12
2017-05-22T01:09:41.586Z,15.07
2017-05-22T01:12:08.284Z,13.68
2017-05-22T01:14:34.927Z,15.12
2017-05-22T01:17:01.571Z,14.15
2017-05-22T01:19:28.303Z,16.82
2017-05-22T01:21:54.943Z,16.58
2017-05-22T01:24:21.991Z,14.93
2017-05-22T01:26:48.634Z,15.53
2017-05-22T01:29:15.267Z,14.47
2017-05-22T01:31:41.915Z,15.62
2017-05-22T01:34:08.532Z,19.13
2017-05-22T01:36:35.203Z,15.88
2017-05-22T01:39:01.927Z,14.63
2017-05-22T01:41:28.547Z,15.77
2017-05-22T01:43:55.208Z,20.38
2017-05-22T01:46:21.995Z,17.72
2017-05-22T01:48:48.615Z,18.10
2017-05-22T01:51:15.231Z,15.48
2017-05-22T01:53:41.879Z,16.73
2017-05-22T01:56:08.502Z,15.67
2017-05-22T01:58:35.124Z,17.82
2017-05-22T02:01:01.787Z,18.22
2017-05-22T02:03:28.457Z,15.70
2017-05-22T02:05:55.075Z,17.22
2017-05-22T02:08:21.799Z,17.07
2017-05-22T02:10:48.423Z,15.88
2017-05-22T02:13:15.038Z,18.38
2017-05-22T02:15:41.679Z,16.08
2017-05-22T02:18:09.867Z,15.45
2017-05-22T02:20:36.630Z,15.75
2017-05-22T02:23:03.383Z,18.25
2017-05-22T02:25:30.005Z,17.27
2017-05-22T02:27:56.624Z,18.93
2017-05-22T02:30:23.267Z,19.15
2017-05-22T02:32:49.932Z,15.62
2017-05-22T02:35:16.558Z,16.68
2017-05-22T02:37:43.209Z,17.02
2017-05-22T02:40:09.831Z,17.17
2017-05-22T02:42:36.495Z,18.98
2017-05-22T02:45:03.150Z,16.50
2017-05-22T02:47:29.770Z,19.83
2017-05-22T02:49:56.408Z,15.50
2017-05-22T02:52:23.055Z,21.32
2017-05-22T02:54:49.675Z,18.05
2017-05-22T02:57:16.356Z,23.17
2017-05-22T02:59:43.020Z,17.68
2017-05-22T03:02:09.639Z,16.40
2017-05-22T03:04:36.724Z,21.25
2017-05-22T03:07:03.395Z,21.02
2017-05-22T03:09:30.011Z,19.62
2017-05-22T03:11:56.626Z,17.74
2017-05-22T03:14:23.306Z,17.60
2017-05-22T03:16:49.923Z,17.72
2017-05-22T03:19:16.588Z,18.97
2017-05-22T03:21:43.227Z,18.35
2017-05-22T03:24:09.851Z,22.32
2017-05-22T03:26:36.500Z,18.48
2017-05-22T03:29:03.147Z,17.62
2017-05-22T03:31:29.783Z,17.88
2017-05-22T03:33:56.407Z,18.32
2017-05-22T03:36:23.158Z,16.12
2017-05-22T03:38:49.783Z,16.68
2017-05-22T03:41:16.399Z,17.17
2017-05-22T03:43:43.041Z,18.93
2017-05-22T03:46:09.659Z,21.27
2017-05-22T03:48:36.363Z,17.62
2017-05-22T03:51:03.100Z,17.02
2017-05-22T03:53:29.739Z,18.92
2017-05-22T03:55:56.355Z,16.80
2017-05-22T03:58:23.019Z,16.77
2017-05-22T04:00:49.635Z,15.42
2017-05-22T04:03:16.292Z,18.82
2017-05-22T04:05:43.032Z,15.75
2017-05-22T04:08:09.655Z,19.57
2017-05-22T04:10:36.274Z,16.07
2017-05-22T04:13:02.947Z,16.52
2017-05-22T04:15:29.583Z,19.20
2017-05-22T04:17:56.199Z,15.10
2017-05-22T04:20:22.851Z,16.20
2017-05-22T04:22:49.467Z,22.62
2017-05-22T04:25:16.151Z,23.15
2017-05-22T04:27:42.820Z,23.67
2017-05-22T04:30:09.523Z,18.75
2017-05-22T04:32:36.163Z,16.90
2017-05-22T04:35:02.824Z,16.10
2017-05-22T04:37:29.439Z,15.48
2017-05-22T04:39:56.118Z,16.85
2017-05-22T04:42:23.130Z,17.50
2017-05-22T04:44:49.770Z,16.97
2017-05-22T04:47:16.387Z,16.13
2017-05-22T04:49:43.043Z,17.30
2017-05-22T04:52:09.659Z,16.47
2017-05-22T04:54:36.278Z,16.10
2017-05-22T04:57:02.967Z,16.92
2017-05-22T04:59:29.603Z,17.32
2017-05-22T05:01:56.245Z,14.72
2017-05-22T05:04:22.890Z,16.44
2017-05-22T05:06:49.658Z,14.40
2017-05-22T05:09:16.364Z,13.43
2017-05-22T05:11:43.034Z,14.63
2017-05-22T05:14:09.755Z,15.27
2017-05-22T05:16:36.371Z,14.33
2017-05-22T05:19:03.058Z,15.00
2017-05-22T05:21:29.674Z,14.12
2017-05-22T05:23:56.367Z,12.80
2017-05-22T05:26:23.007Z,14.45
2017-05-22T05:28:49.679Z,16.12
2017-05-22T05:31:16.303Z,12.67
2017-05-22T05:33:42.963Z,14.35
2017-05-22T05:36:09.633Z,13.17
2017-05-22T05:38:36.249Z,12.03
2017-05-22T05:41:02.903Z,17.57
2017-05-22T05:43:29.523Z,11.38
2017-05-22T05:45:56.254Z,14.48
2017-05-22T05:48:22.891Z,12.03
2017-05-22T05:50:49.543Z,13.15
2017-05-22T05:53:16.171Z,11.78
2017-05-22T05:55:42.915Z,14.92
2017-05-22T05:58:09.539Z,9.92
2017-05-22T06:00:36.159Z,13.67
2017-05-22T06:03:02.795Z,9.13
2017-05-22T06:05:29.411Z,20.40
2017-05-22T06:07:56.029Z,8.98
2017-05-22T06:10:22.680Z,11.27
2017-05-22T06:12:49.387Z,12.68
2017-05-22T06:15:16.062Z,10.65
2017-05-22T06:17:42.703Z,11.00
2017-05-22T06:20:09.319Z,8.18
2017-05-22T06:22:35.935Z,9.12
2017-05-22T06:25:02.583Z,9.50
2017-05-22T06:27:29.199Z,6.72
2017-05-22T06:29:55.811Z,7.98
2017-05-22T06:32:22.451Z,8.03
2017-05-22T06:34:49.139Z,7.12
2017-05-22T06:37:15.751Z,6.65
2017-05-22T06:39:42.416Z,4.87
2017-05-22T06:42:09.027Z,5.43
2017-05-22T06:44:35.692Z,4.48
2017-05-22T06:47:02.333Z,6.92
2017-05-22T06:49:28.963Z,7.63
2017-05-22T06:51:55.579Z,5.02
2017-05-22T06:54:22.254Z,6.33
2017-05-22T06:56:48.875Z,6.43
2017-05-22T06:59:15.490Z,6.75
2017-05-22T07:01:42.131Z,10.30
2017-05-22T07:04:08.807Z,4.77
2017-05-22T07:06:35.427Z,3.92
2017-05-22T07:09:02.071Z,5.87
2017-05-22T07:11:28.686Z,5.82
2017-05-22T07:13:55.301Z,7.58
2017-05-22T07:16:21.999Z,4.42
2017-05-22T07:18:48.639Z,3.22
2017-05-22T07:21:15.279Z,3.65
2017-05-22T07:23:41.921Z,3.58
2017-05-22T07:26:08.534Z,3.52
2017-05-22T07:28:35.160Z,3.00
2017-05-22T07:31:01.812Z,5.70
2017-05-22T07:33:28.428Z,3.70
2017-05-22T07:35:55.041Z,4.27
2017-05-22T07:38:21.700Z,4.05
2017-05-22T07:40:48.395Z,3.53
2017-05-22T07:43:15.011Z,4.10
2017-05-22T07:45:41.670Z,2.80
2017-05-22T07:48:08.301Z,6.97
2017-05-22T07:50:34.924Z,3.20
2017-05-22T07:53:01.691Z,4.00
2017-05-22T07:55:28.310Z,3.35
2017-05-22T07:57:54.928Z,3.22
2017-05-22T08:00:21.579Z,2.97
2017-05-22T08:02:48.199Z,2.68
2017-05-22T08:05:14.812Z,5.18
2017-05-22T08:07:41.459Z,3.88
2017-05-22T08:10:08.162Z,3.27
2017-05-22T08:12:34.775Z,3.85
2017-05-22T08:15:01.438Z,4.72
2017-05-22T08:17:28.055Z,2.60
2017-05-22T08:19:54.670Z,3.03
2017-05-22T08:22:21.359Z,4.18
2017-05-22T08:24:47.983Z,3.27
2017-05-22T08:27:14.640Z,3.18
2017-05-22T08:29:41.274Z,2.82
2017-05-22T08:32:07.890Z,3.87
2017-05-22T08:34:34.557Z,2.50
2017-05-22T08:37:01.208Z,3.40
2017-05-22T08:39:27.932Z,3.90
2017-05-22T08:41:54.575Z,2.78
2017-05-22T08:44:21.215Z,3.98
2017-05-22T08:46:47.835Z,2.83
2017-05-22T08:49:14.447Z,3.28
2017-05-22T08:51:41.078Z,7.10
2017-05-22T08:54:07.767Z,2.60
2017-05-22T08:56:34.383Z,3.02
2017-05-22T08:59:01.045Z,6.43
2017-05-22T09:01:27.656Z,6.03
2017-05-22T09:03:54.361Z,4.43
2017-05-22T09:06:21.002Z,18.13
2017-05-22T09:08:47.619Z,3.33
2017-05-22T09:11:14.233Z,3.37
2017-05-22T09:13:40.917Z,2.67
2017-05-22T09:16:07.530Z,7.58
2017-05-22T09:18:34.151Z,2.75
2017-05-22T09:21:00.898Z,4.17
2017-05-22T09:23:27.515Z,2.60
2017-05-22T09:25:54.131Z,2.40
2017-05-22T09:28:20.815Z,3.57
2017-05-22T09:30:47.430Z,3.57
2017-05-22T09:33:14.051Z,3.17
2017-05-22T09:35:40.714Z,4.20
2017-05-22T09:38:07.367Z,2.40
2017-05-22T09:40:33.983Z,2.40
2017-05-22T09:43:00.651Z,7.52
2017-05-22T09:45:27.267Z,7.40
2017-05-22T09:47:53.928Z,3.20
2017-05-22T09:50:20.580Z,3.03
2017-05-22T09:52:47.191Z,2.58
2017-05-22T09:55:13.815Z,2.75
2017-05-22T09:57:40.483Z,3.42
2017-05-22T10:00:07.108Z,2.82
2017-05-22T10:02:33.797Z,4.92
2017-05-22T10:05:00.498Z,4.65
2017-05-22T10:07:27.115Z,3.68
2017-05-22T10:09:53.775Z,3.27
2017-05-22T10:12:20.415Z,3.48
2017-05-22T10:14:47.100Z,3.17
2017-05-22T10:17:13.803Z,2.58
2017-05-22T10:19:40.439Z,3.17
2017-05-22T10:22:07.075Z,3.18
2017-05-22T10:24:33.687Z,3.67
2017-05-22T10:27:00.327Z,2.72
2017-05-22T10:29:26.943Z,4.13
2017-05-22T10:31:53.669Z,2.17
2017-05-22T10:34:20.306Z,4.62
2017-05-22T10:36:47.050Z,3.28
2017-05-22T10:39:13.760Z,2.75
2017-05-22T10:41:40.518Z,3.38
2017-05-22T10:44:07.131Z,3.97
2017-05-22T10:46:33.755Z,5.37
2017-05-22T10:49:00.394Z,3.40
2017-05-22T10:51:27.052Z,4.13
2017-05-22T10:53:53.671Z,2.50
2017-05-22T10:56:20.302Z,2.00
2017-05-22T10:58:47.006Z,2.05
2017-05-22T11:01:13.707Z,2.27
2017-05-22T11:03:40.455Z,8.13
2017-05-22T11:06:07.099Z,2.52
2017-05-22T11:08:33.720Z,8.72
2017-05-22T11:11:00.367Z,22.53
2017-05-22T11:13:28.478Z,6.33
2017-05-22T11:15:55.227Z,14.83
2017-05-22T11:18:21.880Z,18.22
2017-05-22T11:20:48.494Z,3.57
2017-05-22T11:23:15.443Z,9.32
2017-05-22T11:25:42.185Z,8.47
2017-05-22T11:28:08.805Z,12.43
2017-05-22T11:30:35.594Z,8.08
2017-05-22T11:33:02.647Z,7.28
2017-05-22T11:35:29.295Z,12.28
2017-05-22T11:37:55.959Z,4.75
2017-05-22T11:40:22.599Z,3.90
2017-05-22T11:42:49.219Z,10.90
2017-05-22T11:45:15.878Z,10.87
2017-05-22T11:47:42.839Z,11.73
2017-05-22T11:50:09.567Z,9.60
2017-05-22T11:52:36.183Z,6.53
2017-05-22T11:55:02.840Z,3.95
2017-05-22T11:57:29.459Z,13.00
2017-05-22T11:59:56.075Z,6.00
2017-05-22T12:02:22.743Z,4.22
2017-05-22T12:04:49.379Z,6.15
2017-05-22T12:07:16.134Z,2.58
2017-05-22T12:09:42.883Z,2.70
2017-05-22T12:12:09.524Z,4.38
2017-05-22T12:14:36.144Z,2.30
2017-05-22T12:17:02.790Z,4.27
2017-05-22T12:19:29.416Z,4.45
2017-05-22T12:21:56.035Z,3.83
2017-05-22T12:24:22.678Z,3.15
2017-05-22T12:26:49.295Z,2.85
2017-05-22T12:29:15.915Z,3.07
2017-05-22T12:31:42.571Z,4.88
2017-05-22T12:34:09.184Z,3.25
2017-05-22T12:36:35.803Z,5.72
2017-05-22T12:39:02.451Z,75.73
2017-05-22T12:41:29.066Z,5.73
2017-05-22T12:43:55.683Z,6.02
2017-05-22T12:46:22.353Z,11.75
2017-05-22T12:48:48.977Z,3.33
2017-05-22T12:51:15.599Z,8.92
2017-05-22T12:53:42.238Z,2.58
2017-05-22T12:56:08.858Z,3.15
2017-05-22T12:58:35.559Z,2.78
2017-05-22T13:01:02.202Z,7.20
2017-05-22T13:03:28.815Z,4.17
2017-05-22T13:05:55.436Z,2.57
2017-05-22T13:08:22.148Z,2.30
2017-05-22T13:10:48.767Z,2.60
2017-05-22T13:13:15.383Z,2.85
2017-05-22T13:15:42.235Z,3.52
2017-05-22T13:18:08.880Z,8.37
2017-05-22T13:20:35.496Z,8.17
2017-05-22T13:23:02.147Z,4.55
2017-05-22T13:25:28.762Z,9.20
2017-05-22T13:27:55.427Z,3.38
2017-05-22T13:30:22.087Z,3.63
2017-05-22T13:32:48.703Z,2.83
2017-05-22T13:35:15.323Z,3.63
2017-05-22T13:37:41.959Z,3.35
2017-05-22T13:40:08.571Z,2.67
2017-05-22T13:42:35.187Z,2.77
2017-05-22T13:45:01.905Z,9.63
2017-05-22T13:47:28.519Z,3.02
2017-05-22T13:49:55.136Z,8.63
2017-05-22T13:52:21.775Z,2.93
2017-05-22T13:54:48.459Z,5.28
2017-05-22T13:57:15.079Z,5.35
2017-05-22T13:59:41.740Z,6.85
2017-05-22T14:02:08.355Z,5.25
2017-05-22T14:04:34.979Z,2.97
2017-05-22T14:07:01.615Z,2.90
2017-05-22T14:09:28.300Z,2.98
2017-05-22T14:11:54.919Z,4.43
2017-05-22T14:14:21.556Z,3.18
2017-05-22T14:16:48.175Z,5.37
2017-05-22T14:19:14.797Z,2.78
2017-05-22T14:21:41.444Z,3.70
2017-05-22T14:24:08.059Z,2.00
2017-05-22T14:26:34.719Z,2.58
2017-05-22T14:29:01.411Z,2.55
2017-05-22T14:31:28.081Z,4.33
2017-05-22T14:33:54.706Z,3.70
2017-05-22T14:36:21.463Z,2.12
2017-05-22T14:38:48.168Z,2.74
2017-05-22T14:41:14.778Z,3.10
2017-05-22T14:43:41.410Z,2.44
2017-05-22T14:46:08.087Z,2.20
2017-05-22T14:48:34.723Z,2.52
2017-05-22T14:51:01.363Z,2.12
2017-05-22T14:53:27.976Z,2.76
2017-05-22T14:55:54.586Z,2.46
2017-05-22T14:58:21.240Z,6.50
2017-05-22T15:00:47.918Z,2.10
2017-05-22T15:03:14.555Z,3.60
2017-05-22T15:05:41.195Z,3.86
2017-05-22T15:08:07.835Z,7.44
2017-05-22T15:10:34.995Z,4.30
2017-05-22T15:13:01.727Z,2.10
2017-05-22T15:15:28.339Z,2.30
2017-05-22T15:17:54.958Z,3.42
2017-05-22T15:20:21.595Z,2.18
2017-05-22T15:22:48.215Z,1.68
2017-05-22T15:25:15.639Z,2.22
2017-05-22T15:27:42.378Z,2.74
2017-05-22T15:30:09.023Z,2.64
2017-05-22T15:32:35.639Z,1.40
2017-05-22T15:35:03.282Z,2.10
2017-05-22T15:37:29.949Z,2.08
2017-05-22T15:39:56.599Z,2.28
2017-05-22T15:42:23.238Z,2.40
2017-05-22T15:44:49.851Z,2.18
2017-05-22T15:47:16.522Z,3.34
2017-05-22T15:49:43.265Z,1.94
2017-05-22T15:52:09.889Z,5.70
2017-05-22T15:54:36.499Z,3.70
2017-05-22T15:57:03.174Z,3.30
2017-05-22T15:59:29.796Z,13.98
2017-05-22T16:01:56.411Z,3.82
2017-05-22T16:04:23.051Z,4.66
2017-05-22T16:06:49.734Z,2.04
2017-05-22T16:09:16.356Z,2.70
2017-05-22T16:11:43.006Z,2.10
2017-05-22T16:14:09.647Z,2.56
2017-05-22T16:16:36.317Z,4.08
2017-05-22T16:19:02.984Z,5.40
2017-05-22T16:21:29.606Z,3.05
2017-05-22T16:23:56.227Z,8.37
2017-05-22T16:26:22.876Z,5.27
2017-05-22T16:28:49.491Z,4.38
2017-05-22T16:31:16.104Z,4.05
2017-05-22T16:33:42.739Z,3.13
2017-05-22T16:36:09.355Z,3.52
2017-05-22T16:38:36.034Z,3.00
2017-05-22T16:41:02.683Z,4.87
2017-05-22T16:43:29.315Z,4.08
2017-05-22T16:45:55.931Z,4.35
2017-05-22T16:48:22.575Z,5.62
2017-05-22T16:50:49.199Z,3.40
2017-05-22T16:53:15.866Z,4.85
2017-05-22T16:55:42.619Z,2.93
2017-05-22T16:58:09.255Z,3.78
2017-05-22T17:00:35.875Z,3.43
2017-05-22T17:03:02.646Z,4.37
2017-05-22T17:05:29.258Z,7.35
2017-05-22T17:07:55.908Z,4.10
2017-05-22T17:10:22.547Z,4.20
2017-05-22T17:12:49.190Z,4.73
2017-05-22T17:15:15.807Z,3.93
2017-05-22T17:17:42.473Z,4.37
2017-05-22T17:20:09.111Z,4.30
2017-05-22T17:22:35.738Z,3.75
2017-05-22T17:25:02.381Z,4.72
2017-05-22T17:27:29.030Z,3.98
2017-05-22T17:29:55.644Z,3.42
2017-05-22T17:32:22.298Z,3.82
2017-05-22T17:34:48.975Z,4.25
2017-05-22T17:37:15.683Z,4.03
2017-05-22T17:39:42.331Z,4.57
2017-05-22T17:42:08.947Z,4.52
2017-05-22T17:44:35.604Z,3.18
2017-05-22T17:47:02.447Z,3.60
2017-05-22T17:49:29.078Z,7.30
2017-05-22T17:51:55.723Z,4.02
2017-05-22T17:54:22.363Z,3.75
2017-05-22T17:56:48.978Z,4.80
2017-05-22T17:59:15.601Z,3.47
2017-05-22T18:01:42.255Z,3.87
2017-05-22T18:04:08.871Z,6.40
2017-05-22T18:06:35.555Z,4.02
2017-05-22T18:09:02.200Z,3.95
2017-05-22T18:11:28.810Z,3.15
2017-05-22T18:13:55.427Z,4.08
2017-05-22T18:16:22.070Z,4.22
2017-05-22T18:18:48.687Z,4.07
2017-05-22T18:21:15.386Z,4.50
2017-05-22T18:23:42.023Z,4.05
2017-05-22T18:26:08.639Z,3.85
2017-05-22T18:28:35.305Z,4.07
2017-05-22T18:31:01.959Z,4.40
2017-05-22T18:33:28.575Z,5.07
2017-05-22T18:35:55.199Z,6.50
2017-05-22T18:38:21.847Z,4.75
2017-05-22T18:40:48.498Z,4.12
2017-05-22T18:43:15.115Z,6.75
2017-05-22T18:45:41.758Z,6.72
2017-05-22T18:48:08.422Z,6.22
2017-05-22T18:50:35.034Z,4.95
2017-05-22T18:53:01.699Z,8.13
2017-05-22T18:55:28.314Z,5.68
2017-05-22T18:57:54.932Z,5.40
2017-05-22T19:00:21.611Z,4.72
2017-05-22T19:02:48.237Z,5.05
2017-05-22T19:05:14.863Z,5.03
2017-05-22T19:07:41.502Z,5.15
2017-05-22T19:10:08.166Z,8.63
2017-05-22T19:12:34.791Z,13.65
2017-05-22T19:15:01.548Z,5.10
2017-05-22T19:17:28.158Z,9.98
2017-05-22T19:19:54.823Z,5.17
2017-05-22T19:22:21.475Z,6.18
2017-05-22T19:24:48.092Z,10.23
2017-05-22T19:27:14.707Z,5.75
2017-05-22T19:29:41.367Z,5.88
2017-05-22T19:32:07.982Z,6.13
2017-05-22T19:34:34.595Z,5.03
2017-05-22T19:37:01.303Z,4.97
2017-05-22T19:39:27.935Z,6.15
2017-05-22T19:41:54.548Z,6.53
2017-05-22T19:44:21.214Z,6.95
2017-05-22T19:46:47.851Z,6.73
2017-05-22T19:49:14.462Z,7.70
2017-05-22T19:51:41.150Z,9.12
2017-05-22T19:54:07.871Z,6.90
2017-05-22T19:56:34.483Z,6.22
2017-05-22T19:59:01.125Z,5.65
2017-05-22T20:01:27.744Z,8.82
2017-05-22T20:03:54.465Z,6.95
2017-05-22T20:06:21.110Z,6.87
2017-05-22T20:08:47.728Z,6.23
2017-05-22T20:11:14.360Z,8.70
2017-05-22T20:13:41.003Z,11.18
2017-05-22T20:16:07.658Z,7.52
2017-05-22T20:18:34.280Z,6.47
2017-05-22T20:21:01.003Z,6.15
2017-05-22T20:23:27.623Z,12.97
2017-05-22T20:25:54.244Z,9.63
2017-05-22T20:28:20.885Z,7.60
2017-05-22T20:30:47.507Z,16.60
2017-05-22T20:33:14.199Z,6.83
2017-05-22T20:35:40.941Z,7.33
2017-05-22T20:38:07.559Z,7.98
2017-05-22T20:40:34.218Z,7.85
2017-05-22T20:43:00.855Z,7.38
2017-05-22T20:45:27.477Z,12.80
2017-05-22T20:47:54.100Z,10.37
2017-05-22T20:50:20.775Z,8.83
2017-05-22T20:52:47.425Z,8.53
2017-05-22T20:55:14.162Z,10.05
2017-05-22T20:57:40.896Z,9.88
2017-05-22T21:00:07.519Z,10.63
2017-05-22T21:02:34.175Z,9.83
2017-05-22T21:05:00.832Z,11.28
2017-05-22T21:07:27.447Z,15.62
2017-05-22T21:09:54.063Z,9.75
2017-05-22T21:12:20.710Z,10.65
2017-05-22T21:14:47.328Z,12.78
2017-05-22T21:17:13.943Z,9.00
2017-05-22T21:19:40.650Z,12.77
2017-05-22T21:22:07.268Z,12.93
2017-05-22T21:24:33.884Z,12.05
2017-05-22T21:27:00.526Z,17.43
2017-05-22T21:29:27.151Z,15.65
2017-05-22T21:31:53.843Z,16.03
2017-05-22T21:34:20.487Z,19.03
2017-05-22T21:36:47.112Z,15.83
2017-05-22T21:39:13.767Z,16.48
2017-05-22T21:41:40.500Z,20.52
2017-05-22T21:44:07.139Z,18.82
2017-05-22T21:46:33.764Z,21.70
2017-05-22T21:49:00.522Z,16.95
2017-05-22T21:51:27.143Z,17.77
2017-05-22T21:53:53.762Z,19.78
2017-05-22T21:56:20.419Z,17.95
2017-05-22T21:58:47.043Z,22.35
2017-05-22T22:01:13.720Z,18.48
2017-05-22T22:03:40.362Z,20.06
2017-05-22T22:06:07.095Z,20.72
2017-05-22T22:08:33.723Z,18.77
2017-05-22T22:11:00.475Z,20.43
2017-05-22T22:13:27.100Z,18.98
2017-05-22T22:15:53.719Z,18.80
2017-05-22T22:18:20.496Z,18.10
2017-05-22T22:20:47.147Z,18.50
2017-05-22T22:23:13.766Z,22.07
2017-05-22T22:25:40.503Z,23.18
2017-05-22T22:28:07.119Z,21.30
2017-05-22T22:30:33.801Z,18.43
2017-05-22T22:33:00.451Z,24.02
2017-05-22T22:35:27.067Z,18.73
2017-05-22T22:37:53.715Z,22.05
2017-05-22T22:40:20.359Z,19.33
2017-05-22T22:42:46.979Z,20.47
2017-05-22T22:45:13.602Z,19.17
2017-05-22T22:47:40.247Z,21.10
2017-05-22T22:50:06.867Z,20.12
2017-05-22T22:52:33.494Z,19.28
2017-05-22T22:55:00.142Z,21.53
2017-05-22T22:57:26.846Z,21.40
2017-05-22T22:59:53.475Z,21.00
2017-05-22T23:02:20.127Z,23.43
2017-05-22T23:04:46.843Z,20.75
2017-05-22T23:07:13.468Z,20.83
2017-05-22T23:09:40.124Z,20.40
2017-05-22T23:12:06.746Z,21.42
2017-05-22T23:14:33.363Z,22.35
2017-05-22T23:17:00.003Z,20.13
2017-05-22T23:19:26.679Z,21.22
2017-05-22T23:21:53.317Z,23.32
2017-05-22T23:24:19.963Z,22.38
2017-05-22T23:26:46.694Z,20.67
2017-05-22T23:29:13.321Z,25.40
2017-05-22T23:31:39.963Z,19.80
2017-05-22T23:34:06.611Z,21.32
2017-05-22T23:36:33.255Z,25.18
2017-05-22T23:38:59.903Z,24.52
2017-05-22T23:41:26.531Z,25.70
2017-05-22T23:43:53.152Z,21.12
2017-05-22T23:46:19.802Z,23.27
2017-05-22T23:48:46.431Z,23.27
2017-05-22T23:51:13.055Z,22.20
2017-05-22T23:53:39.726Z,22.72
2017-05-22T23:56:06.351Z,23.04
2017-05-22T23:58:32.977Z,21.38
